Time;durP1;ratioP1;P1;durP2;ratioP2;P2;SDS_P1;SDS_P2;PMS_P1;PMS_P2;Temp;Humidity;BMP_temperature;BMP_pressure;BME280_temperature;BME280_humidity;BME280_pressure;Samples;Min_cycle;Max_cycle;Signal;HPM_P1;HPM_P2
2023/02/02 00:01:39;;;;;;;2.50;1.90;;;;;;;1.08;89.88;97971.50;222066;1280;22537;-78
2023/02/02 00:06:46;;;;;;;3.00;2.30;;;;;;;1.01;89.98;97971.74;221034;1281;22569;-77
2023/02/02 00:11:52;;;;;;;3.40;2.20;;;;;;;0.95;89.82;97973.38;221101;1281;22768;-77
2023/02/02 00:16:58;;;;;;;3.20;2.10;;;;;;;0.90;90.08;97975.65;221074;1280;22470;-78
2023/02/02 00:22:01;;;;;;;2.50;1.80;;;;;;;0.86;90.07;97984.36;221551;1280;25345;-78
2023/02/02 00:27:04;;;;;;;3.10;2.30;;;;;;;0.82;90.35;97985.09;222324;1275;22790;-77
2023/02/02 00:32:10;;;;;;;4.10;3.00;;;;;;;0.80;90.35;97987.54;221300;1279;22546;-76
2023/02/02 00:37:17;;;;;;;5.10;3.60;;;;;;;0.81;90.63;97994.05;221928;1281;24244;-77
2023/02/02 00:42:20;;;;;;;6.80;5.10;;;;;;;0.82;90.40;97995.81;221575;1280;22579;-78
2023/02/02 00:47:22;;;;;;;8.90;5.90;;;;;;;0.83;90.15;97997.52;221385;1278;23207;-79
2023/02/02 00:52:26;;;;;;;9.00;6.40;;;;;;;0.83;90.68;97997.13;222093;1275;22544;-77
2023/02/02 00:57:28;;;;;;;10.00;6.60;;;;;;;0.85;90.27;97996.92;221399;1278;24248;-76
2023/02/02 01:02:33;;;;;;;11.20;6.90;;;;;;;0.85;90.62;98001.64;221349;1280;22533;-79
2023/02/02 01:07:35;;;;;;;11.70;8.00;;;;;;;0.85;90.68;97998.27;221150;1280;22651;-77
2023/02/02 01:12:38;;;;;;;13.60;9.30;;;;;;;0.86;90.84;98002.02;222228;1280;25570;-77
2023/02/02 01:17:41;;;;;;;13.90;9.20;;;;;;;0.88;90.69;98003.20;221141;1280;22532;-78
2023/02/02 01:22:45;;;;;;;13.80;9.40;;;;;;;0.91;90.55;98005.85;221519;1280;22560;-77
2023/02/02 01:27:48;;;;;;;12.80;9.20;;;;;;;0.95;90.83;98009.67;221294;1275;23390;-77
2023/02/02 01:32:50;;;;;;;9.10;7.50;;;;;;;0.96;91.05;98003.25;222099;1281;22698;-78
2023/02/02 01:37:53;;;;;;;9.80;6.70;;;;;;;0.98;91.31;98008.09;221308;1280;23800;-78
2023/02/02 01:42:56;;;;;;;10.00;6.80;;;;;;;1.01;91.19;98007.36;222195;1275;25341;-78
2023/02/02 01:47:59;;;;;;;6.20;4.70;;;;;;;1.03;91.43;98005.96;221143;1277;22645;-78
2023/02/02 01:53:05;;;;;;;6.60;4.00;;;;;;;1.03;91.07;98004.50;221059;1280;24250;-78
2023/02/02 01:58:16;;;;;;;7.40;3.10;;;;;;;1.04;91.40;98010.30;221399;1280;23410;-78
2023/02/02 02:03:21;;;;;;;5.20;2.90;;;;;;;1.05;91.00;98012.30;221085;1273;24294;-79
2023/02/02 02:08:32;;;;;;;5.40;2.60;;;;;;;1.04;91.20;98013.59;221398;1280;23188;-78
2023/02/02 02:19:28;;;;;;;6.70;2.50;;;;;;;1.09;91.29;98029.29;221455;1259;22588;-78
2023/02/02 02:30:57;;;;;;;5.40;2.10;;;;;;;1.26;91.48;98043.98;221061;1282;22961;-78
2023/02/02 02:36:03;;;;;;;6.70;2.20;;;;;;;1.34;91.14;98052.73;220848;1283;314777;-78
2023/02/02 02:41:21;;;;;;;5.20;2.00;;;;;;;1.41;91.35;98059.85;221048;1280;23036;-78
2023/02/02 02:46:26;;;;;;;5.90;2.10;;;;;;;1.46;91.24;98064.08;221049;1279;25476;-77
2023/02/02 02:51:48;;;;;;;2.90;1.80;;;;;;;1.49;91.50;98062.92;220807;1282;25498;-78
2023/02/02 02:57:23;;;;;;;5.00;1.70;;;;;;;1.50;91.45;98060.00;221159;1283;24314;-77
2023/02/02 03:02:48;;;;;;;5.00;2.00;;;;;;;1.50;91.10;98062.92;221514;1275;22728;-78
2023/02/02 03:08:44;;;;;;;6.20;1.60;;;;;;;1.52;90.90;98065.71;221303;1281;23825;-78
2023/02/02 03:13:50;;;;;;;3.10;1.50;;;;;;;1.55;91.15;98068.02;221103;1281;25432;-78
2023/02/02 03:18:54;;;;;;;7.00;2.20;;;;;;;1.57;91.27;98063.80;221053;1278;23991;-77
2023/02/02 03:23:57;;;;;;;4.50;1.70;;;;;;;1.60;90.94;98067.52;221373;1275;25312;-78
2023/02/02 03:29:01;;;;;;;5.10;1.70;;;;;;;1.61;90.99;98059.27;222220;1275;22603;-77
2023/02/02 03:34:06;;;;;;;5.40;1.60;;;;;;;1.63;91.37;98058.69;221219;1270;22647;-78
2023/02/02 03:39:09;;;;;;;6.10;1.60;;;;;;;1.66;90.92;98056.01;221355;1278;22663;-78
2023/02/02 03:44:34;;;;;;;8.90;1.70;;;;;;;1.69;91.04;98062.09;221377;1280;25124;-78
2023/02/02 03:49:48;;;;;;;4.70;1.40;;;;;;;1.73;90.88;98063.15;221195;1275;22714;-78
2023/02/02 03:54:51;;;;;;;6.80;1.60;;;;;;;1.75;90.51;98057.56;221253;1281;22536;-78
2023/02/02 03:59:54;;;;;;;7.40;1.60;;;;;;;1.74;90.40;98057.98;221436;1278;22570;-78
2023/02/02 04:04:57;;;;;;;6.90;1.90;;;;;;;1.73;90.72;98056.16;221443;1280;22689;-77
2023/02/02 04:10:09;;;;;;;6.40;2.50;;;;;;;1.72;90.40;98055.20;221298;1280;25532;-78
2023/02/02 04:15:16;;;;;;;4.80;2.00;;;;;;;1.73;90.45;98052.17;221453;1276;24187;-79
2023/02/02 04:20:23;;;;;;;7.10;2.70;;;;;;;1.73;90.40;98047.63;222296;1275;22547;-77
2023/02/02 04:25:26;;;;;;;4.00;1.40;;;;;;;1.73;90.40;98047.85;221391;1278;22537;-78
2023/02/02 04:30:29;;;;;;;7.20;1.40;;;;;;;1.71;90.28;98043.34;221438;1280;22663;-79
2023/02/02 04:35:35;;;;;;;4.30;1.40;;;;;;;1.72;89.95;98042.23;221249;1280;24243;-78
2023/02/02 04:40:41;;;;;;;3.70;1.50;;;;;;;1.73;89.93;98049.19;221431;1280;25415;-78
2023/02/02 04:45:43;;;;;;;4.50;1.40;;;;;;;1.75;89.44;98051.13;221656;1275;24340;-78
2023/02/02 04:50:46;;;;;;;7.20;1.40;;;;;;;1.76;89.87;98052.41;221451;1278;22571;-79
2023/02/02 04:55:48;;;;;;;5.30;1.40;;;;;;;1.80;89.63;98051.05;222247;1276;22544;-79
2023/02/02 05:00:51;;;;;;;8.00;1.60;;;;;;;1.81;89.47;98050.20;222290;1278;22669;-79
2023/02/02 05:06:01;;;;;;;8.10;1.70;;;;;;;1.83;89.42;98054.66;222385;1276;22540;-79
2023/02/02 05:11:09;;;;;;;4.00;1.40;;;;;;;1.85;89.57;98052.37;221173;1278;22547;-80
2023/02/02 05:16:12;;;;;;;6.60;1.50;;;;;;;1.89;89.34;98050.31;222394;1278;25338;-78
2023/02/02 05:21:15;;;;;;;6.50;1.70;;;;;;;1.93;89.65;98043.56;221317;1281;22579;-78
2023/02/02 05:26:24;;;;;;;7.10;1.70;;;;;;;1.98;88.89;98046.38;221396;1281;22568;-79
2023/02/02 05:31:26;;;;;;;4.80;1.30;;;;;;;2.04;88.90;98045.48;221582;1277;24829;-79
2023/02/02 05:36:30;;;;;;;5.10;1.60;;;;;;;2.08;88.61;98042.44;222080;1281;22710;-79
2023/02/02 05:41:33;;;;;;;5.20;1.30;;;;;;;2.11;88.21;98039.23;221062;1276;23807;-79
2023/02/02 05:46:36;;;;;;;5.30;1.60;;;;;;;2.13;88.56;98041.23;222157;1281;22534;-77
2023/02/02 05:51:46;;;;;;;4.90;1.50;;;;;;;2.15;88.09;98040.23;221341;1270;24241;-80
2023/02/02 05:56:51;;;;;;;8.70;3.00;;;;;;;2.13;87.65;98041.46;221969;1281;22651;-80
2023/02/02 06:01:53;;;;;;;6.90;2.30;;;;;;;2.12;87.71;98028.63;221280;1278;22548;-80
2023/02/02 06:06:56;;;;;;;7.80;2.50;;;;;;;2.11;87.57;98030.17;221540;1280;22649;-80
2023/02/02 06:11:58;;;;;;;7.30;2.50;;;;;;;2.09;86.86;98038.36;222179;1276;23171;-81
2023/02/02 06:17:02;;;;;;;9.70;3.60;;;;;;;2.06;86.74;98041.83;222034;1279;22829;-79
2023/02/02 06:22:06;;;;;;;8.50;3.50;;;;;;;2.02;86.90;98056.05;221336;1278;26451;-79
2023/02/02 06:27:09;;;;;;;6.90;3.10;;;;;;;2.01;87.02;98060.36;222270;1275;22673;-80
2023/02/02 06:32:12;;;;;;;6.40;2.50;;;;;;;1.94;86.90;98062.10;222013;1280;22566;-80
2023/02/02 06:37:16;;;;;;;8.30;2.60;;;;;;;1.85;86.91;98064.05;222182;1274;25817;-78
2023/02/02 06:42:22;;;;;;;4.70;2.10;;;;;;;1.77;87.15;98055.82;221045;1281;22466;-80
2023/02/02 06:47:25;;;;;;;4.50;1.70;;;;;;;1.68;87.22;98047.66;222035;1279;25450;-80
2023/02/02 06:52:29;;;;;;;4.30;2.20;;;;;;;1.63;87.56;98047.23;221469;1277;23205;-78
2023/02/02 06:57:31;;;;;;;7.60;2.40;;;;;;;1.62;87.79;98036.14;221790;1273;23756;-79
2023/02/02 07:02:35;;;;;;;10.90;4.90;;;;;;;1.61;87.90;98033.05;222229;1272;137986;-78
2023/02/02 07:07:52;;;;;;;5.50;2.50;;;;;;;1.62;87.92;98036.79;223181;1273;138947;-79
2023/02/02 07:13:05;;;;;;;7.60;2.50;;;;;;;1.64;88.12;98039.04;222357;1262;138230;-80
2023/02/02 07:18:10;;;;;;;7.40;3.30;;;;;;;1.65;88.17;98036.06;222003;1266;137485;-81
2023/02/02 07:23:13;;;;;;;7.70;3.30;;;;;;;1.70;88.37;98039.45;223012;1272;138253;-83
2023/02/02 07:28:15;;;;;;;5.30;2.30;;;;;;;1.79;88.37;98034.77;221839;1265;138283;-76
2023/02/02 07:33:18;;;;;;;5.80;2.20;;;;;;;1.89;88.21;98036.52;221775;1265;22536;-76
2023/02/02 07:38:23;;;;;;;7.00;2.30;;;;;;;1.99;87.87;98027.36;221675;1262;137958;-77
2023/02/02 07:43:35;;;;;;;6.50;2.70;;;;;;;2.08;88.02;98028.40;221638;1272;138119;-78
2023/02/02 07:48:45;;;;;;;6.60;2.40;;;;;;;2.16;88.09;98033.60;221461;1272;138838;-77
2023/02/02 07:53:51;;;;;;;6.60;2.00;;;;;;;2.25;88.15;98041.92;221487;1280;137324;-76
2023/02/02 07:59:01;;;;;;;6.70;2.20;;;;;;;2.38;87.97;98050.73;221766;1272;138283;-74
2023/02/02 08:04:04;;;;;;;3.30;1.60;;;;;;;2.52;87.28;98061.77;221714;1260;138450;-75
2023/02/02 08:09:12;;;;;;;4.10;1.10;;;;;;;2.68;87.59;98065.62;221696;1275;22572;-75
2023/02/02 08:14:14;;;;;;;4.50;1.20;;;;;;;2.76;87.58;98062.63;221745;1262;138618;-75
2023/02/02 08:19:17;;;;;;;1.50;0.90;;;;;;;2.81;87.34;98068.17;221490;1271;139352;-75
2023/02/02 08:24:23;;;;;;;3.30;1.00;;;;;;;2.89;86.92;98070.05;221629;1268;138543;-75
2023/02/02 08:29:26;;;;;;;6.10;1.20;;;;;;;3.00;86.87;98065.42;221674;1269;138390;-76
2023/02/02 08:34:30;;;;;;;2.80;1.10;;;;;;;3.12;86.54;98072.19;221888;1260;138356;-75
2023/02/02 08:39:32;;;;;;;4.10;1.20;;;;;;;3.18;86.54;98090.29;221733;1275;23360;-76
2023/02/02 08:44:35;;;;;;;4.00;1.40;;;;;;;3.22;86.08;98115.30;221794;1268;137791;-77
2023/02/02 08:49:58;;;;;;;4.30;2.00;;;;;;;3.19;86.21;98120.02;221870;1272;138121;-77
2023/02/02 08:55:08;;;;;;;5.70;2.00;;;;;;;2.99;86.34;98131.94;223108;1262;140590;-78
2023/02/02 09:00:15;;;;;;;4.00;2.30;;;;;;;2.74;86.75;98134.86;221679;1278;138303;-77
2023/02/02 09:05:48;;;;;;;4.30;2.60;;;;;;;2.51;87.23;98136.65;222365;1275;138372;-80
2023/02/02 09:11:02;;;;;;;6.40;2.90;;;;;;;2.31;87.63;98135.54;222870;1273;138854;-80
2023/02/02 09:16:14;;;;;;;3.80;2.30;;;;;;;2.22;88.12;98135.80;222579;1280;138328;-81
2023/02/02 09:21:18;;;;;;;5.60;2.50;;;;;;;2.15;88.66;98146.81;223411;1280;23265;-82
2023/02/02 09:26:27;;;;;;;3.30;2.30;;;;;;;2.09;88.41;98154.20;223377;1278;138501;-80
2023/02/02 09:31:37;;;;;;;4.80;2.40;;;;;;;2.09;88.70;98148.30;223381;1280;138169;-81
2023/02/02 09:36:41;;;;;;;47.10;8.60;;;;;;;2.11;89.15;98155.92;223642;1272;138257;-84
2023/02/02 09:41:58;;;;;;;9.40;3.50;;;;;;;2.22;89.45;98159.66;223630;1272;138427;-80
2023/02/02 09:47:32;;;;;;;42.60;6.70;;;;;;;2.40;90.24;98163.52;223506;1272;138457;-81
2023/02/02 09:53:13;;;;;;;8.10;3.80;;;;;;;2.57;90.10;98172.05;223167;1275;138849;-81
2023/02/02 09:58:48;;;;;;;12.90;4.10;;;;;;;2.68;89.80;98169.51;222245;1272;138276;-80
2023/02/02 10:04:00;;;;;;;5.80;2.60;;;;;;;2.74;89.70;98174.84;223114;1268;138445;-81
2023/02/02 10:09:43;;;;;;;4.10;2.10;;;;;;;2.81;89.95;98173.80;223065;1275;24275;-79
2023/02/02 10:15:05;;;;;;;3.50;1.70;;;;;;;2.90;89.66;98187.88;223434;1256;22568;-79
2023/02/02 10:20:25;;;;;;;4.70;1.80;;;;;;;2.99;89.47;98183.98;223512;1275;138988;-78
2023/02/02 10:25:42;;;;;;;12.00;2.90;;;;;;;3.15;89.51;98181.46;222759;1275;138254;-78
2023/02/02 10:30:54;;;;;;;14.40;3.50;;;;;;;3.29;89.33;98189.45;221701;1279;138753;-77
2023/02/02 10:36:45;;;;;;;5.70;2.40;;;;;;;3.33;88.96;98186.37;221639;1279;138528;-77
2023/02/02 10:42:01;;;;;;;6.30;2.20;;;;;;;3.42;89.02;98194.86;222969;1280;138697;-78
2023/02/02 10:47:12;;;;;;;4.80;2.00;;;;;;;3.46;88.65;98208.90;223200;1276;139111;-76
2023/02/02 10:52:25;;;;;;;4.10;1.70;;;;;;;3.55;87.91;98229.78;221503;1280;138402;-79
2023/02/02 10:57:49;;;;;;;6.30;2.00;;;;;;;3.58;87.54;98230.10;223065;1279;23148;-78
2023/02/02 11:03:07;;;;;;;3.10;1.50;;;;;;;3.66;87.06;98227.20;223058;1276;22614;-80
2023/02/02 11:08:44;;;;;;;2.40;1.40;;;;;;;3.72;86.75;98232.34;223406;1269;138047;-79
2023/02/02 11:14:23;;;;;;;4.00;1.70;;;;;;;3.67;86.20;98235.09;222987;1271;138954;-80
2023/02/02 11:19:28;;;;;;;5.70;1.80;;;;;;;3.65;86.39;98241.25;222606;1278;139428;-79
2023/02/02 11:24:46;;;;;;;3.50;1.70;;;;;;;3.71;86.14;98236.39;222956;1280;138870;-80
2023/02/02 11:29:52;;;;;;;6.30;2.60;;;;;;;3.76;85.71;98248.68;223016;1269;138838;-79
2023/02/02 11:35:31;;;;;;;8.00;3.30;;;;;;;3.73;85.80;98258.50;223109;1280;138350;-80
2023/02/02 11:40:52;;;;;;;5.50;3.00;;;;;;;3.64;86.45;98258.38;223182;1276;138780;-81
2023/02/02 11:46:03;;;;;;;4.00;2.50;;;;;;;3.52;86.63;98267.16;223351;1279;138710;-81
2023/02/02 11:51:07;;;;;;;7.20;4.80;;;;;;;3.44;87.46;98271.20;223345;1280;25870;-77
2023/02/02 11:56:25;;;;;;;8.00;4.10;;;;;;;3.52;87.92;98275.27;222279;1275;139561;-78
2023/02/02 12:01:40;;;;;;;6.90;3.10;;;;;;;3.57;88.26;98287.76;222214;1279;138303;-78
2023/02/02 12:06:42;;;;;;;5.20;2.90;;;;;;;3.48;88.16;98297.49;221910;1277;138259;-79
2023/02/02 12:11:53;;;;;;;6.40;2.80;;;;;;;3.42;88.07;98300.73;221973;1280;138799;-79
2023/02/02 12:17:10;;;;;;;2.80;1.70;;;;;;;3.38;88.15;98304.58;221922;1266;138476;-79
2023/02/02 12:22:50;;;;;;;4.60;2.00;;;;;;;3.38;88.13;98302.81;222066;1264;138504;-78
2023/02/02 12:28:06;;;;;;;2.80;1.80;;;;;;;3.47;88.03;98315.18;221900;1272;138296;-77
2023/02/02 12:33:34;;;;;;;3.20;1.90;;;;;;;3.50;88.03;98318.48;221941;1274;25512;-78
2023/02/02 12:39:24;;;;;;;3.50;1.30;;;;;;;3.43;88.65;98326.85;221635;1280;137953;-79
2023/02/02 12:44:39;;;;;;;2.20;1.60;;;;;;;3.47;88.39;98318.98;221818;1274;138098;-79
2023/02/02 12:50:12;;;;;;;3.10;1.70;;;;;;;3.80;88.91;98328.20;221738;1260;138364;-81
2023/02/02 12:55:35;;;;;;;1.70;1.50;;;;;;;4.05;87.99;98333.40;221910;1278;138105;-81
2023/02/02 13:00:59;;;;;;;2.40;1.50;;;;;;;4.16;87.55;98340.27;222965;1276;138316;-81
2023/02/02 13:06:16;;;;;;;3.50;1.40;;;;;;;4.24;86.92;98347.68;223190;1273;138586;-79
2023/02/02 13:11:31;;;;;;;2.10;1.30;;;;;;;4.26;86.59;98352.30;221650;1278;139285;-79
2023/02/02 13:16:36;;;;;;;2.30;1.30;;;;;;;4.30;86.39;98361.65;221985;1276;139179;-79
2023/02/02 13:21:42;;;;;;;2.40;1.10;;;;;;;4.30;85.85;98356.95;221839;1278;22593;-79
2023/02/02 13:26:45;;;;;;;3.70;1.50;;;;;;;4.29;85.73;98362.19;221794;1275;137978;-78
2023/02/02 13:31:54;;;;;;;3.60;1.50;;;;;;;4.27;85.34;98363.72;221741;1279;139170;-79
2023/02/02 13:37:06;;;;;;;4.30;1.70;;;;;;;4.21;85.46;98370.64;221849;1278;138454;-80
2023/02/02 13:42:29;;;;;;;2.60;1.40;;;;;;;4.13;85.23;98378.14;221933;1278;138315;-80
2023/02/02 13:47:46;;;;;;;4.10;1.60;;;;;;;4.05;85.35;98383.73;221863;1263;138304;-79
2023/02/02 13:53:19;;;;;;;3.50;1.80;;;;;;;4.02;85.66;98400.13;221963;1272;138481;-86
2023/02/02 13:58:40;;;;;;;5.90;2.80;;;;;;;3.95;85.55;98408.66;222046;1279;138633;-80
2023/02/02 14:03:51;;;;;;;5.30;2.70;;;;;;;3.91;85.96;98410.65;221919;1276;22575;-80
2023/02/02 14:08:59;;;;;;;10.10;4.70;;;;;;;3.93;85.87;98424.88;221870;1273;24324;-79
2023/02/02 14:19:39;;;;;;;5.50;3.30;;;;;;;3.93;85.86;98442.52;222051;1276;138102;-80
2023/02/02 14:24:49;;;;;;;7.60;3.10;;;;;;;3.93;85.85;98445.33;221945;1276;138311;-80
2023/02/02 14:29:51;;;;;;;6.10;2.60;;;;;;;4.00;85.94;98458.89;221884;1277;138868;-82
2023/02/02 14:35:30;;;;;;;6.60;2.70;;;;;;;4.02;85.68;98466.15;221416;1273;1774125;-82
2023/02/02 14:41:12;;;;;;;3.70;2.30;;;;;;;3.93;85.07;98474.63;222791;1276;137680;-81
2023/02/02 14:46:31;;;;;;;6.50;2.20;;;;;;;3.78;85.04;98481.42;222796;1263;138326;-82
2023/02/02 14:52:04;;;;;;;4.30;2.10;;;;;;;3.68;84.78;98502.02;224031;1264;23659;-82
2023/02/02 14:57:24;;;;;;;7.80;3.50;;;;;;;3.56;85.15;98500.62;222770;1274;23215;-82
2023/02/02 15:02:35;;;;;;;7.60;2.70;;;;;;;3.46;85.27;98511.76;223497;1268;139043;-81
2023/02/02 15:07:51;;;;;;;5.60;2.60;;;;;;;3.41;85.45;98531.42;223109;1275;24269;-82
2023/02/02 15:13:11;;;;;;;6.50;2.40;;;;;;;3.35;85.56;98545.30;222582;1280;26706;-81
2023/02/02 15:18:24;;;;;;;6.70;3.10;;;;;;;3.25;85.62;98551.66;221474;1280;25083;-81
2023/02/02 15:23:32;;;;;;;5.60;2.40;;;;;;;3.16;85.60;98559.59;221455;1280;22677;-79
2023/02/02 15:28:46;;;;;;;5.00;1.90;;;;;;;3.05;85.70;98569.61;221495;1279;22559;-80
2023/02/02 15:33:57;;;;;;;7.10;2.80;;;;;;;2.93;85.66;98565.52;221565;1274;24238;-80
2023/02/02 15:39:30;;;;;;;7.50;3.20;;;;;;;2.84;85.64;98580.80;221540;1276;24288;-80
2023/02/02 15:44:35;;;;;;;11.20;5.60;;;;;;;2.78;86.34;98598.60;221495;1280;22530;-80
2023/02/02 15:49:38;;;;;;;6.60;3.30;;;;;;;2.72;86.40;98610.23;221305;1280;22537;-79
2023/02/02 15:54:55;;;;;;;8.70;3.80;;;;;;;2.68;86.16;98627.17;221417;1277;22679;-79
2023/02/02 15:59:59;;;;;;;8.50;4.30;;;;;;;2.65;86.40;98645.38;221433;1279;24260;-80
2023/02/02 16:05:22;;;;;;;9.10;4.60;;;;;;;2.59;86.28;98645.38;221654;1276;22557;-79
2023/02/02 16:10:25;;;;;;;8.40;3.60;;;;;;;2.54;86.72;98663.62;221307;1269;24237;-79
2023/02/02 16:15:30;;;;;;;7.70;4.00;;;;;;;2.50;86.62;98678.08;221590;1263;22616;-79
2023/02/02 16:20:36;;;;;;;6.80;3.90;;;;;;;2.47;86.55;98696.84;221561;1260;25424;-81
2023/02/02 16:25:49;;;;;;;8.20;3.60;;;;;;;2.46;86.90;98707.08;221413;1280;22547;-79
2023/02/02 16:30:52;;;;;;;5.30;2.80;;;;;;;2.41;86.71;98712.17;221588;1270;24157;-78
2023/02/02 16:35:55;;;;;;;6.90;3.40;;;;;;;2.33;86.72;98720.70;221545;1279;24278;-80
2023/02/02 16:41:06;;;;;;;10.80;4.30;;;;;;;2.26;86.34;98728.35;221455;1279;22652;-78
2023/02/02 16:46:11;;;;;;;;;;;;;;;2.17;86.90;98738.36;221572;1280;23415;-79
2023/02/02 16:51:32;;;;;;;7.60;3.80;;;;;;;2.08;86.92;98765.89;221382;1274;22876;-80
2023/02/02 16:56:43;;;;;;;6.60;3.40;;;;;;;2.07;86.78;98780.23;221570;1278;22557;-80
2023/02/02 17:01:49;;;;;;;9.40;4.80;;;;;;;2.07;87.00;98790.44;221347;1280;22564;-80
2023/02/02 17:06:54;;;;;;;8.70;4.70;;;;;;;2.05;86.63;98796.42;221565;1275;25428;-78
2023/02/02 17:12:14;;;;;;;6.50;3.90;;;;;;;2.00;86.57;98806.08;221455;1280;22622;-79
2023/02/02 17:17:48;;;;;;;9.70;3.60;;;;;;;1.91;86.41;98804.24;221521;1280;22738;-79
2023/02/02 17:22:59;;;;;;;6.50;3.70;;;;;;;1.84;86.39;98822.59;221436;1276;22537;-80
2023/02/02 17:28:06;;;;;;;6.80;3.90;;;;;;;1.78;86.25;98832.46;221404;1277;23033;-79
2023/02/02 17:33:13;;;;;;;8.80;4.20;;;;;;;1.70;86.09;98838.84;221333;1277;24260;-79
2023/02/02 17:38:16;;;;;;;9.60;4.50;;;;;;;1.63;85.97;98843.09;221371;1279;22535;-79
2023/02/02 17:43:20;;;;;;;8.80;5.20;;;;;;;1.53;86.18;98847.10;221633;1275;22540;-79
2023/02/02 17:48:23;;;;;;;9.90;5.00;;;;;;;1.41;85.99;98853.27;221594;1278;25342;-78
2023/02/02 17:53:29;;;;;;;10.90;5.10;;;;;;;1.29;85.63;98871.98;221507;1279;22587;-78
2023/02/02 17:58:34;;;;;;;8.50;4.70;;;;;;;1.19;86.17;98883.96;221539;1279;25245;-79
2023/02/02 18:03:39;;;;;;;10.00;5.00;;;;;;;1.11;85.85;98889.64;221330;1279;22543;-79
2023/02/02 18:08:41;;;;;;;12.30;5.90;;;;;;;1.01;86.22;98905.13;221652;1273;25448;-79
2023/02/02 18:13:46;;;;;;;10.70;5.10;;;;;;;0.94;86.15;98919.77;221428;1279;22715;-79
2023/02/02 18:18:59;;;;;;;8.80;5.70;;;;;;;0.87;86.56;98930.80;221612;1280;24248;-79
2023/02/02 18:24:02;;;;;;;12.30;7.50;;;;;;;0.81;86.51;98941.88;221523;1279;22560;-79
2023/02/02 18:29:04;;;;;;;11.90;6.80;;;;;;;0.78;86.70;98948.83;221229;1279;22545;-79
2023/02/02 18:34:06;;;;;;;12.70;7.20;;;;;;;0.81;86.65;98954.16;221489;1280;24039;-80
2023/02/02 18:39:08;;;;;;;11.90;6.40;;;;;;;0.84;86.87;98971.40;221510;1277;25246;-79
2023/02/02 18:44:10;;;;;;;10.70;6.00;;;;;;;0.90;86.92;98978.86;221347;1274;25579;-80
2023/02/02 18:49:13;;;;;;;8.50;5.60;;;;;;;0.96;86.48;98985.58;221568;1280;22658;-79
2023/02/02 18:54:18;;;;;;;7.90;4.70;;;;;;;1.00;85.71;99001.87;221590;1274;25307;-79
2023/02/02 18:59:21;;;;;;;7.60;4.50;;;;;;;1.05;85.46;99015.13;221358;1280;23783;-79
2023/02/02 19:04:24;;;;;;;7.80;3.90;;;;;;;1.08;84.99;99026.71;221510;1278;25399;-79
2023/02/02 19:09:26;;;;;;;7.20;3.90;;;;;;;1.11;84.44;99041.09;221547;1278;22548;-79
2023/02/02 19:14:37;;;;;;;6.70;4.20;;;;;;;1.13;84.63;99060.73;221384;1277;22531;-79
2023/02/02 19:19:41;;;;;;;6.70;4.10;;;;;;;1.14;84.32;99072.90;221229;1273;22586;-80
2023/02/02 19:24:44;;;;;;;8.20;4.30;;;;;;;1.16;84.09;99086.98;221458;1273;25304;-79
2023/02/02 19:29:49;;;;;;;6.50;3.40;;;;;;;1.16;84.01;99100.14;221406;1280;22547;-79
2023/02/02 19:34:58;;;;;;;5.80;3.10;;;;;;;1.17;83.15;99105.98;221328;1279;24292;-77
2023/02/02 19:40:09;;;;;;;5.30;2.70;;;;;;;1.15;82.55;99105.80;221460;1276;22550;-78
2023/02/02 19:45:26;;;;;;;4.20;2.50;;;;;;;1.12;82.60;99111.08;221565;1275;22536;-78
2023/02/02 19:50:37;;;;;;;4.80;2.90;;;;;;;1.11;81.84;99124.27;221523;1276;25341;-79
2023/02/02 19:55:40;;;;;;;;;;;;;;;1.09;82.20;99137.10;221541;1273;24241;-79
2023/02/02 20:00:45;;;;;;;7.20;4.20;;;;;;;1.08;82.26;99148.27;221513;1273;22554;-79
2023/02/02 20:05:51;;;;;;;7.80;3.40;;;;;;;1.07;82.14;99150.60;221313;1276;23013;-80
2023/02/02 20:10:56;;;;;;;6.90;4.20;;;;;;;1.07;81.90;99163.44;221534;1278;22666;-79
2023/02/02 20:16:00;;;;;;;6.60;4.20;;;;;;;1.06;81.72;99174.64;221472;1279;25531;-79
2023/02/02 20:21:16;;;;;;;7.00;4.30;;;;;;;1.05;81.77;99183.20;221273;1270;22650;-78
2023/02/02 20:26:24;;;;;;;8.70;4.40;;;;;;;1.01;81.67;99185.08;221579;1276;22547;-77
2023/02/02 20:31:34;;;;;;;7.10;4.30;;;;;;;0.95;82.04;99194.86;221320;1279;22533;-78
2023/02/02 20:36:42;;;;;;;;;;;;;;;0.87;81.81;99203.47;221316;1276;25347;-80
2023/02/02 20:41:45;;;;;;;7.60;3.80;;;;;;;0.79;81.72;99208.96;221445;1278;22616;-78
2023/02/02 20:46:49;;;;;;;7.80;4.20;;;;;;;0.74;81.66;99215.10;222379;1276;24248;-79
2023/02/02 20:51:57;;;;;;;6.40;4.10;;;;;;;0.68;81.89;99220.39;221320;1279;24330;-80
2023/02/02 20:57:00;;;;;;;6.20;3.70;;;;;;;0.64;82.20;99224.46;222433;1279;22543;-78
2023/02/02 21:02:04;;;;;;;7.10;3.90;;;;;;;0.63;81.87;99232.38;221383;1276;22669;-78
2023/02/02 21:07:06;;;;;;;7.40;4.00;;;;;;;0.61;81.88;99244.97;221475;1274;22537;-79
2023/02/02 21:12:09;;;;;;;5.90;3.40;;;;;;;0.60;81.86;99245.22;222281;1277;23030;-78
2023/02/02 21:17:11;;;;;;;4.80;2.90;;;;;;;0.60;81.66;99253.56;221507;1261;22609;-78
2023/02/02 21:22:17;;;;;;;6.00;3.40;;;;;;;0.59;81.52;99259.38;221495;1279;22666;-78
2023/02/02 21:27:22;;;;;;;6.20;3.30;;;;;;;0.58;82.12;99260.29;221545;1277;25464;-78
2023/02/02 21:32:24;;;;;;;8.50;4.20;;;;;;;0.58;81.76;99275.88;221285;1274;22553;-77
2023/02/02 21:37:33;;;;;;;7.50;4.90;;;;;;;0.57;81.57;99275.13;221541;1280;22530;-79
2023/02/02 21:42:36;;;;;;;8.60;4.70;;;;;;;0.55;81.59;99283.58;221426;1279;24284;-78
2023/02/02 21:48:04;;;;;;;6.50;3.80;;;;;;;0.54;81.59;99292.11;221159;1278;25398;-78
2023/02/02 21:53:21;;;;;;;6.60;3.90;;;;;;;0.53;81.35;99304.00;221401;1278;24052;-78
2023/02/02 21:58:26;;;;;;;5.50;3.50;;;;;;;0.50;81.18;99297.84;221573;1276;22590;-77
2023/02/02 22:03:36;;;;;;;8.00;4.00;;;;;;;0.45;81.14;99306.19;221343;1279;22533;-77
2023/02/02 22:08:38;;;;;;;6.10;3.80;;;;;;;0.33;81.19;99315.81;221526;1277;27291;-77
2023/02/02 22:13:47;;;;;;;8.60;4.10;;;;;;;0.26;81.33;99328.48;221292;1280;22533;-77
2023/02/02 22:18:50;;;;;;;6.90;4.40;;;;;;;0.26;81.56;99328.84;221421;1270;22480;-78
2023/02/02 22:23:52;;;;;;;7.40;4.10;;;;;;;0.28;81.54;99318.30;221335;1280;22622;-77
2023/02/02 22:28:55;;;;;;;6.80;4.20;;;;;;;0.31;81.65;99326.38;221300;1280;24259;-77
2023/02/02 22:33:57;;;;;;;7.40;4.20;;;;;;;0.32;81.51;99331.48;221309;1275;25477;-78
2023/02/02 22:38:59;;;;;;;7.90;4.70;;;;;;;0.32;81.07;99333.07;221657;1277;24352;-79
2023/02/02 22:44:01;;;;;;;6.70;3.80;;;;;;;0.32;81.41;99341.03;221425;1275;22722;-79
2023/02/02 22:49:07;;;;;;;6.20;4.00;;;;;;;0.29;81.15;99344.52;221282;1279;22527;-76
2023/02/02 22:54:10;;;;;;;5.80;3.80;;;;;;;0.23;81.08;99348.64;221312;1278;22540;-77
2023/02/02 22:59:15;;;;;;;4.90;3.30;;;;;;;0.16;81.41;99360.18;221464;1280;22533;-77
2023/02/02 23:04:17;;;;;;;6.80;4.20;;;;;;;0.10;81.48;99359.80;221301;1276;24238;-77
2023/02/02 23:09:19;;;;;;;7.10;4.10;;;;;;;0.02;81.34;99363.26;221369;1278;24261;-77
2023/02/02 23:14:22;;;;;;;8.40;4.50;;;;;;;-0.04;81.36;99367.52;221324;1273;24396;-77
2023/02/02 23:19:28;;;;;;;7.40;4.00;;;;;;;-0.07;81.50;99382.41;221406;1275;22558;-77
2023/02/02 23:24:30;;;;;;;6.50;3.90;;;;;;;-0.06;81.61;99387.40;221595;1275;25274;-77
2023/02/02 23:29:32;;;;;;;5.90;3.30;;;;;;;-0.04;81.85;99383.79;221251;1280;24431;-76
2023/02/02 23:34:34;;;;;;;7.40;3.80;;;;;;;-0.03;81.19;99390.77;221504;1268;22546;-76
2023/02/02 23:39:37;;;;;;;9.60;4.10;;;;;;;-0.00;81.39;99401.86;221440;1275;23843;-77
2023/02/02 23:44:40;;;;;;;6.80;3.30;;;;;;;0.04;81.85;99406.23;221314;1275;22698;-77
2023/02/02 23:49:42;;;;;;;3.00;2.20;;;;;;;0.10;81.51;99410.55;221215;1278;23849;-78
2023/02/02 23:54:45;;;;;;;2.90;1.70;;;;;;;0.15;80.95;99424.52;221444;1280;22773;-77
2023/02/02 23:59:48;;;;;;;3.40;2.20;;;;;;;0.19;80.90;99427.35;221270;1279;25331;-76
